createdAt,value
2019-02-26T00:01:55.152Z,75.80
2019-02-26T00:04:27.313Z,76.20
2019-02-26T00:06:58.609Z,76.40
2019-02-26T00:09:30.604Z,76.60
2019-02-26T00:12:01.940Z,76.50
2019-02-26T00:14:32.259Z,76.70
2019-02-26T00:17:06.018Z,76.80
2019-02-26T00:19:34.654Z,76.90
2019-02-26T00:22:07.772Z,77.00
2019-02-26T00:24:39.748Z,76.80
2019-02-26T00:27:10.900Z,76.60
2019-02-26T00:29:41.194Z,76.80
2019-02-26T00:32:13.511Z,76.60
2019-02-26T00:34:43.563Z,76.60
2019-02-26T00:37:13.882Z,76.40
2019-02-26T00:39:45.323Z,77.20
2019-02-26T00:42:19.538Z,76.40
2019-02-26T00:44:51.358Z,76.40
2019-02-26T00:47:20.319Z,76.90
2019-02-26T00:49:51.784Z,77.40
2019-02-26T00:52:22.684Z,77.00
2019-02-26T00:54:53.686Z,76.90
2019-02-26T00:57:27.184Z,76.90
2019-02-26T00:59:57.090Z,76.70
2019-02-26T01:02:27.417Z,76.70
2019-02-26T01:04:57.747Z,76.70
2019-02-26T01:07:30.282Z,76.70
2019-02-26T01:10:01.328Z,76.60
2019-02-26T01:12:33.036Z,76.60
2019-02-26T01:15:05.422Z,76.50
2019-02-26T01:17:38.365Z,76.30
2019-02-26T01:20:13.124Z,77.20
2019-02-26T01:22:45.401Z,76.30
2019-02-26T01:25:17.892Z,76.20
2019-02-26T01:27:51.101Z,76.40
2019-02-26T01:30:23.609Z,76.80
2019-02-26T01:32:53.862Z,78.30
2019-02-26T01:35:26.168Z,77.90
2019-02-26T01:37:59.876Z,78.00
2019-02-26T01:40:28.920Z,77.90
2019-02-26T01:43:01.123Z,78.40
2019-02-26T01:45:32.638Z,79.50
2019-02-26T01:48:04.016Z,78.90
2019-02-26T01:50:35.647Z,79.00
2019-02-26T01:53:07.054Z,80.80
2019-02-26T01:55:39.319Z,80.50
2019-02-26T01:58:09.430Z,80.10
2019-02-26T02:00:40.806Z,79.90
2019-02-26T02:03:11.595Z,79.50
2019-02-26T02:05:43.267Z,79.00
2019-02-26T02:08:15.484Z,78.50
2019-02-26T02:10:46.439Z,78.20
2019-02-26T02:13:16.782Z,77.90
2019-02-26T02:15:48.197Z,77.80
2019-02-26T02:18:20.568Z,77.90
2019-02-26T02:20:50.573Z,77.90
2019-02-26T02:23:21.859Z,78.10
2019-02-26T02:25:52.950Z,78.30
2019-02-26T02:28:23.882Z,78.20
2019-02-26T02:30:55.314Z,78.00
2019-02-26T02:33:27.530Z,78.10
2019-02-26T02:35:57.693Z,78.50
2019-02-26T02:38:28.055Z,78.80
2019-02-26T02:40:58.381Z,78.60
2019-02-26T02:43:28.812Z,78.00
2019-02-26T02:46:01.329Z,78.40
2019-02-26T02:48:31.190Z,78.40
2019-02-26T02:51:20.866Z,78.40
2019-02-26T02:53:54.093Z,78.50
2019-02-26T02:56:25.076Z,78.70
2019-02-26T02:58:55.763Z,78.80
2019-02-26T03:01:28.564Z,78.70
2019-02-26T03:03:59.013Z,78.80
2019-02-26T03:06:32.391Z,79.30
2019-02-26T03:09:02.231Z,79.20
2019-02-26T03:11:38.635Z,79.30
2019-02-26T03:14:08.226Z,79.30
2019-02-26T03:16:39.954Z,79.80
2019-02-26T03:19:12.200Z,80.00
2019-02-26T03:21:44.636Z,80.00
2019-02-26T03:24:14.347Z,80.20
2019-02-26T03:26:44.694Z,80.80
2019-02-26T03:29:15.026Z,80.70
2019-02-26T03:31:49.115Z,80.20
2019-02-26T03:34:21.777Z,80.10
2019-02-26T03:36:49.435Z,80.10
2019-02-26T03:39:19.772Z,80.40
2019-02-26T03:41:51.069Z,80.50
2019-02-26T03:44:22.148Z,80.50
2019-02-26T03:46:52.487Z,80.40
2019-02-26T03:49:26.337Z,80.40
2019-02-26T03:51:59.118Z,80.80
2019-02-26T03:54:27.184Z,80.60
2019-02-26T03:56:57.590Z,80.60
2019-02-26T03:59:27.931Z,80.90
2019-02-26T04:01:58.411Z,80.90
2019-02-26T04:04:30.953Z,81.00
2019-02-26T04:07:04.121Z,81.20
2019-02-26T04:09:33.983Z,81.20
2019-02-26T04:12:04.328Z,81.10
2019-02-26T04:14:34.666Z,81.20
2019-02-26T04:17:06.452Z,81.50
2019-02-26T04:19:37.044Z,81.50
2019-02-26T04:22:49.766Z,81.70
2019-02-26T04:25:37.514Z,81.60
2019-02-26T04:28:32.996Z,81.50
2019-02-26T04:31:11.489Z,81.60
2019-02-26T04:34:06.203Z,81.90
2019-02-26T04:37:24.769Z,81.80
2019-02-26T04:40:10.168Z,81.80
2019-02-26T04:43:07.227Z,81.90
2019-02-26T04:45:57.297Z,82.00
2019-02-26T04:48:34.435Z,82.10
2019-02-26T04:51:04.770Z,82.40
2019-02-26T04:53:36.443Z,82.30
2019-02-26T04:56:12.815Z,82.40
2019-02-26T04:58:42.464Z,82.30
2019-02-26T05:01:15.376Z,82.30
2019-02-26T05:03:45.005Z,82.50
2019-02-26T05:06:15.340Z,82.70
2019-02-26T05:08:45.673Z,82.80
2019-02-26T05:11:30.736Z,82.80
2019-02-26T05:13:48.073Z,82.90
2019-02-26T05:16:18.409Z,83.00
2019-02-26T05:18:49.624Z,82.70
2019-02-26T05:21:20.795Z,82.80
2019-02-26T05:23:52.395Z,82.80
2019-02-26T05:26:23.273Z,82.80
2019-02-26T05:28:53.632Z,82.70
2019-02-26T05:31:23.962Z,82.70
2019-02-26T05:33:55.390Z,82.80
2019-02-26T05:36:28.236Z,82.80
2019-02-26T05:39:00.363Z,82.90
2019-02-26T05:41:30.424Z,82.90
2019-02-26T05:44:01.871Z,83.00
2019-02-26T05:46:32.848Z,83.20
2019-02-26T05:49:05.551Z,83.90
2019-02-26T05:51:36.068Z,83.10
2019-02-26T05:54:08.051Z,83.00
2019-02-26T05:56:41.264Z,83.00
2019-02-26T05:59:15.105Z,83.00
2019-02-26T06:02:03.405Z,83.00
2019-02-26T06:04:35.193Z,83.00
2019-02-26T06:07:05.798Z,82.90
2019-02-26T06:09:36.216Z,82.90
2019-02-26T06:12:06.554Z,82.80
2019-02-26T06:14:39.222Z,82.70
2019-02-26T06:17:10.663Z,82.70
2019-02-26T06:20:17.829Z,82.70
2019-02-26T06:22:48.160Z,82.70
2019-02-26T06:25:23.632Z,82.70
2019-02-26T06:27:50.546Z,82.90
2019-02-26T06:30:20.889Z,83.10
2019-02-26T06:32:51.237Z,83.20
2019-02-26T06:35:21.579Z,83.30
2019-02-26T06:37:51.917Z,83.40
2019-02-26T06:40:22.263Z,83.50
2019-02-26T06:42:52.612Z,83.30
2019-02-26T06:45:22.962Z,83.20
2019-02-26T06:47:54.588Z,83.10
2019-02-26T06:50:25.332Z,83.80
2019-02-26T06:52:55.681Z,83.10
2019-02-26T06:55:26.022Z,83.10
2019-02-26T06:58:18.211Z,84.00
2019-02-26T07:00:52.099Z,83.20
2019-02-26T07:03:24.169Z,83.30
2019-02-26T07:05:52.615Z,83.20
2019-02-26T07:08:24.171Z,83.30
2019-02-26T07:10:54.995Z,83.20
2019-02-26T07:13:25.347Z,83.10
2019-02-26T07:15:55.683Z,83.20
2019-02-26T07:18:26.065Z,83.20
2019-02-26T07:20:58.226Z,83.30
2019-02-26T07:23:29.788Z,83.60
2019-02-26T07:26:00.793Z,83.60
2019-02-26T07:28:31.134Z,83.30
2019-02-26T07:31:02.684Z,82.80
2019-02-26T07:33:35.129Z,81.80
2019-02-26T07:36:06.572Z,81.80
2019-02-26T07:38:41.269Z,81.20
2019-02-26T07:41:09.027Z,80.80
2019-02-26T07:43:43.481Z,80.80
2019-02-26T07:46:14.478Z,80.60
2019-02-26T07:48:46.154Z,80.30
2019-02-26T07:51:16.454Z,80.10
2019-02-26T07:53:50.589Z,79.90
2019-02-26T07:56:20.667Z,79.70
2019-02-26T07:58:50.873Z,79.60
2019-02-26T08:01:21.256Z,79.40
2019-02-26T08:03:53.275Z,79.50
2019-02-26T08:06:23.714Z,79.50
2019-02-26T08:08:54.053Z,79.50
2019-02-26T08:11:24.399Z,79.50
2019-02-26T08:13:56.755Z,79.40
2019-02-26T08:16:27.726Z,79.20
2019-02-26T08:19:01.425Z,79.30
2019-02-26T08:21:31.903Z,79.20
2019-02-26T08:24:02.234Z,79.20
2019-02-26T08:26:32.647Z,79.00
2019-02-26T08:29:05.750Z,79.00
2019-02-26T08:31:36.726Z,79.00
2019-02-26T08:34:07.073Z,79.10
2019-02-26T08:36:37.424Z,79.00
2019-02-26T08:39:08.272Z,79.30
2019-02-26T08:41:39.888Z,79.10
2019-02-26T08:44:10.290Z,78.80
2019-02-26T08:46:42.698Z,78.40
2019-02-26T08:49:15.156Z,78.00
2019-02-26T08:51:45.263Z,77.40
2019-02-26T08:54:20.922Z,76.70
2019-02-26T08:56:47.652Z,75.80
2019-02-26T08:59:20.031Z,74.70
2019-02-26T09:01:50.032Z,73.30
2019-02-26T09:04:23.928Z,71.90
2019-02-26T09:06:55.415Z,71.10
2019-02-26T09:09:27.818Z,70.40
2019-02-26T09:12:00.612Z,70.30
2019-02-26T09:14:34.471Z,70.10
2019-02-26T09:17:05.485Z,69.30
2019-02-26T09:19:38.107Z,67.00
2019-02-26T09:22:11.785Z,65.70
2019-02-26T09:24:40.995Z,65.10
2019-02-26T09:27:11.342Z,64.50
2019-02-26T09:29:48.236Z,65.10
2019-02-26T09:32:15.753Z,64.10
2019-02-26T09:34:45.786Z,64.00
2019-02-26T09:37:16.200Z,63.60
2019-02-26T09:39:46.560Z,63.60
2019-02-26T09:42:16.911Z,63.60
2019-02-26T09:44:48.226Z,62.40
2019-02-26T09:47:21.689Z,63.00
2019-02-26T09:49:53.837Z,62.90
2019-02-26T09:52:27.602Z,62.10
2019-02-26T09:54:57.100Z,61.90
2019-02-26T09:57:28.241Z,61.60
2019-02-26T10:00:00.249Z,60.70
2019-02-26T10:02:30.708Z,60.00
2019-02-26T10:05:01.061Z,60.00
2019-02-26T10:07:35.557Z,58.90
2019-02-26T10:10:06.525Z,57.90
2019-02-26T10:12:37.454Z,56.40
2019-02-26T10:15:15.060Z,53.50
2019-02-26T10:17:45.446Z,52.20
2019-02-26T10:20:29.542Z,52.50
2019-02-26T10:23:01.243Z,50.80
2019-02-26T10:25:32.064Z,49.40
2019-02-26T10:28:08.714Z,47.60
2019-02-26T10:30:38.998Z,46.60
2019-02-26T10:33:08.899Z,46.60
2019-02-26T10:35:42.028Z,45.10
2019-02-26T10:38:11.743Z,42.90
2019-02-26T10:40:53.341Z,42.70
2019-02-26T10:43:14.324Z,42.70
2019-02-26T10:45:47.289Z,41.90
2019-02-26T10:48:19.080Z,39.80
2019-02-26T10:50:49.688Z,39.50
2019-02-26T10:53:22.677Z,39.20
2019-02-26T10:55:52.923Z,39.00
2019-02-26T10:58:24.246Z,38.60
2019-02-26T11:00:55.762Z,36.80
2019-02-26T11:03:26.663Z,36.90
2019-02-26T11:05:57.012Z,37.30
2019-02-26T11:08:29.668Z,37.30
2019-02-26T11:10:59.419Z,37.00
2019-02-26T11:13:29.746Z,36.10
2019-02-26T11:16:03.060Z,36.80
2019-02-26T11:18:34.775Z,35.30
2019-02-26T11:21:05.517Z,35.00
2019-02-26T11:23:36.405Z,35.90
2019-02-26T11:26:10.690Z,34.00
2019-02-26T11:28:42.471Z,34.40
2019-02-26T11:31:14.132Z,33.70
2019-02-26T11:33:44.412Z,33.80
2019-02-26T11:36:15.744Z,33.70
2019-02-26T11:38:47.070Z,32.80
2019-02-26T11:41:17.426Z,33.20
2019-02-26T11:43:47.776Z,32.40
2019-02-26T11:46:20.191Z,32.40
2019-02-26T11:48:52.554Z,30.70
2019-02-26T11:51:23.196Z,31.60
2019-02-26T11:53:53.538Z,30.60
2019-02-26T11:56:25.688Z,32.00
2019-02-26T11:58:55.937Z,32.10
2019-02-26T12:01:27.000Z,32.40
2019-02-26T12:04:03.287Z,31.40
2019-02-26T12:06:29.790Z,29.80
2019-02-26T12:09:00.126Z,31.40
2019-02-26T12:11:30.550Z,31.50
2019-02-26T12:14:00.886Z,32.00
2019-02-26T12:16:31.313Z,31.50
2019-02-26T12:19:03.540Z,30.50
2019-02-26T12:21:34.662Z,30.10
2019-02-26T12:24:06.702Z,29.90
2019-02-26T12:26:37.870Z,30.00
2019-02-26T12:29:08.219Z,31.30
2019-02-26T12:31:39.148Z,30.40
2019-02-26T12:34:11.879Z,31.50
2019-02-26T12:36:41.543Z,32.10
2019-02-26T12:39:11.887Z,31.60
2019-02-26T12:41:45.332Z,31.80
2019-02-26T12:44:16.132Z,31.30
2019-02-26T12:46:47.807Z,31.10
2019-02-26T12:49:21.260Z,31.40
2019-02-26T12:51:53.458Z,31.90
2019-02-26T12:54:22.412Z,31.80
2019-02-26T12:56:55.027Z,32.00
2019-02-26T12:59:25.864Z,32.00
2019-02-26T13:01:56.211Z,32.10
2019-02-26T13:04:26.557Z,32.50
2019-02-26T13:06:56.907Z,32.60
2019-02-26T13:09:27.237Z,33.00
2019-02-26T13:14:29.921Z,33.10
2019-02-26T13:17:00.291Z,33.10
2019-02-26T13:19:33.441Z,33.40
2019-02-26T13:22:06.700Z,33.40
2019-02-26T13:24:34.709Z,33.90
2019-02-26T13:27:05.509Z,34.30
2019-02-26T13:29:35.847Z,34.50
2019-02-26T13:32:08.008Z,35.20
2019-02-26T13:34:38.531Z,35.50
2019-02-26T13:37:08.866Z,34.80
2019-02-26T13:39:41.540Z,35.00
2019-02-26T13:42:14.070Z,34.80
2019-02-26T13:44:43.818Z,35.00
2019-02-26T13:47:14.185Z,35.40
2019-02-26T13:49:44.527Z,35.70
2019-02-26T13:52:14.998Z,35.70
2019-02-26T13:54:45.327Z,36.20
2019-02-26T13:57:17.687Z,36.10
2019-02-26T13:59:47.722Z,36.10
2019-02-26T14:02:18.076Z,36.30
2019-02-26T14:04:48.402Z,36.50
2019-02-26T14:07:18.797Z,36.70
2019-02-26T14:09:49.131Z,36.90
2019-02-26T14:12:19.554Z,36.70
2019-02-26T14:14:49.903Z,36.70
2019-02-26T14:17:20.267Z,36.60
2019-02-26T14:19:50.597Z,36.70
2019-02-26T14:22:21.235Z,36.80
2019-02-26T14:24:51.581Z,36.70
2019-02-26T14:27:21.975Z,36.40
2019-02-26T14:29:52.284Z,37.00
2019-02-26T14:32:22.636Z,36.80
2019-02-26T14:34:52.988Z,36.90
2019-02-26T14:37:23.344Z,36.90
2019-02-26T14:39:53.686Z,37.20
2019-02-26T14:42:24.031Z,37.30
2019-02-26T14:44:54.469Z,37.40
2019-02-26T14:47:24.800Z,37.60
2019-02-26T14:49:55.140Z,37.80
2019-02-26T14:52:25.496Z,38.20
2019-02-26T14:54:56.019Z,38.90
2019-02-26T14:57:26.364Z,38.30
2019-02-26T14:59:56.704Z,38.50
2019-02-26T15:02:27.046Z,38.60
2019-02-26T15:04:57.397Z,38.40
2019-02-26T15:07:27.752Z,38.10
2019-02-26T15:09:58.096Z,37.80
2019-02-26T15:12:28.446Z,38.00
2019-02-26T15:14:58.798Z,38.20
2019-02-26T15:17:29.254Z,38.10
2019-02-26T15:19:59.582Z,38.50
2019-02-26T15:22:29.956Z,38.70
2019-02-26T15:25:00.305Z,39.00
2019-02-26T15:27:36.927Z,39.20
2019-02-26T15:30:02.949Z,39.40
2019-02-26T15:32:34.672Z,39.50
2019-02-26T15:35:06.348Z,39.80
2019-02-26T15:37:36.734Z,40.10
2019-02-26T15:40:11.551Z,40.30
2019-02-26T15:42:42.241Z,40.50
2019-02-26T15:45:29.057Z,40.70
2019-02-26T15:48:03.703Z,40.90
2019-02-26T15:50:33.158Z,41.20
2019-02-26T15:53:03.506Z,41.10
2019-02-26T15:55:33.851Z,41.40
2019-02-26T15:58:06.703Z,41.60
2019-02-26T16:00:38.007Z,41.90
2019-02-26T16:03:08.308Z,41.70
2019-02-26T16:05:39.900Z,41.60
2019-02-26T16:08:10.350Z,41.60
2019-02-26T16:10:40.687Z,42.40
2019-02-26T16:13:11.068Z,41.80
2019-02-26T16:15:41.411Z,42.00
2019-02-26T16:18:11.770Z,41.90
2019-02-26T16:20:42.112Z,42.10
2019-02-26T16:23:12.471Z,42.80
2019-02-26T16:25:42.812Z,42.30
2019-02-26T16:28:13.167Z,42.50
2019-02-26T16:30:43.507Z,42.80
2019-02-26T16:33:14.466Z,42.70
2019-02-26T16:35:44.889Z,43.40
2019-02-26T16:38:15.579Z,43.50
2019-02-26T16:40:45.913Z,43.60
2019-02-26T16:43:35.603Z,43.70
2019-02-26T16:46:08.312Z,44.10
2019-02-26T16:48:38.071Z,44.90
2019-02-26T16:51:08.500Z,45.20
2019-02-26T16:53:38.851Z,45.60
2019-02-26T16:56:09.436Z,46.10
2019-02-26T16:58:39.863Z,47.10
2019-02-26T17:01:10.523Z,46.70
2019-02-26T17:03:40.875Z,47.10
2019-02-26T17:06:11.217Z,47.50
2019-02-26T17:08:41.584Z,48.00
2019-02-26T17:11:13.432Z,48.20
2019-02-26T17:13:44.204Z,48.70
2019-02-26T17:16:14.544Z,49.00
2019-02-26T17:18:44.954Z,49.20
2019-02-26T17:21:15.291Z,49.70
2019-02-26T17:23:47.084Z,50.90
2019-02-26T17:26:17.691Z,50.70
2019-02-26T17:28:48.049Z,51.00
2019-02-26T17:31:18.395Z,51.40
2019-02-26T17:33:48.764Z,51.80
2019-02-26T17:36:19.113Z,52.40
2019-02-26T17:38:51.494Z,52.90
2019-02-26T17:41:21.503Z,53.50
2019-02-26T17:43:51.845Z,54.20
2019-02-26T17:46:22.370Z,54.70
2019-02-26T17:48:53.787Z,54.90
2019-02-26T17:51:24.139Z,55.30
2019-02-26T17:53:54.478Z,55.90
2019-02-26T17:56:26.694Z,56.40
2019-02-26T17:58:56.882Z,56.70
2019-02-26T18:01:27.230Z,57.00
2019-02-26T18:03:57.571Z,57.10
2019-02-26T18:06:27.928Z,57.50
2019-02-26T18:08:58.262Z,57.80
2019-02-26T18:11:28.608Z,58.00
2019-02-26T18:14:00.220Z,58.40
2019-02-26T18:16:31.758Z,58.80
2019-02-26T18:19:03.336Z,59.40
2019-02-26T18:21:33.689Z,59.40
2019-02-26T18:24:04.092Z,59.70
2019-02-26T18:26:34.625Z,60.80
2019-02-26T18:29:05.035Z,60.50
2019-02-26T18:31:35.386Z,60.80
2019-02-26T18:34:05.807Z,61.40
2019-02-26T18:36:37.091Z,61.40
2019-02-26T18:39:23.060Z,61.60
2019-02-26T18:41:50.658Z,63.10
2019-02-26T18:44:17.822Z,62.90
2019-02-26T18:46:49.496Z,63.30
2019-02-26T18:49:21.828Z,65.80
2019-02-26T18:51:52.999Z,64.70
2019-02-26T18:54:24.210Z,64.40
2019-02-26T18:56:54.563Z,64.50
2019-02-26T18:59:24.906Z,64.50
2019-02-26T19:01:55.584Z,64.30
2019-02-26T19:04:25.915Z,65.50
2019-02-26T19:06:59.401Z,66.40
2019-02-26T19:09:28.293Z,66.50
2019-02-26T19:11:58.699Z,66.30
2019-02-26T19:14:29.053Z,66.70
2019-02-26T19:16:59.410Z,66.70
2019-02-26T19:19:29.737Z,66.90
2019-02-26T19:22:02.685Z,67.00
2019-02-26T19:24:35.648Z,67.30
2019-02-26T19:27:05.191Z,67.90
2019-02-26T19:29:35.531Z,67.90
2019-02-26T19:32:05.880Z,68.10
2019-02-26T19:34:36.219Z,68.10
2019-02-26T19:37:06.568Z,68.50
2019-02-26T19:39:36.901Z,68.70
2019-02-26T19:42:07.251Z,69.70
2019-02-26T19:44:37.583Z,69.30
2019-02-26T19:47:07.933Z,69.20
2019-02-26T19:49:39.685Z,69.30
2019-02-26T19:52:10.598Z,69.40
2019-02-26T19:54:42.033Z,70.10
2019-02-26T19:57:13.243Z,70.50
2019-02-26T19:59:46.874Z,70.30
2019-02-26T20:02:15.652Z,70.50
2019-02-26T20:04:46.016Z,70.80
2019-02-26T20:07:16.340Z,70.80
2019-02-26T20:09:46.679Z,71.10
2019-02-26T20:12:18.012Z,71.10
2019-02-26T20:14:49.558Z,71.30
2019-02-26T20:17:22.717Z,71.30
2019-02-26T20:19:54.057Z,71.70
2019-02-26T20:22:25.425Z,71.60
2019-02-26T20:24:55.805Z,71.80
2019-02-26T20:27:26.148Z,71.90
2019-02-26T20:29:57.552Z,72.40
2019-02-26T20:32:31.042Z,72.70
2019-02-26T20:35:01.900Z,73.00
2019-02-26T20:37:33.796Z,73.30
2019-02-26T20:40:06.234Z,73.60
2019-02-26T20:42:36.600Z,73.40
2019-02-26T20:45:11.705Z,73.50
2019-02-26T20:47:42.056Z,73.90
2019-02-26T20:50:13.516Z,74.00
2019-02-26T20:52:43.846Z,74.10
2019-02-26T20:55:27.099Z,74.70
2019-02-26T20:57:57.445Z,74.30
2019-02-26T21:00:48.277Z,74.40
2019-02-26T21:03:18.765Z,75.00
2019-02-26T21:05:49.098Z,74.80
2019-02-26T21:08:19.442Z,75.20
2019-02-26T21:10:49.870Z,75.40
2019-02-26T21:13:20.205Z,75.20
2019-02-26T21:15:51.618Z,75.90
2019-02-26T21:18:21.964Z,75.40
2019-02-26T21:20:52.294Z,75.00
2019-02-26T21:23:22.639Z,75.10
2019-02-26T21:25:52.979Z,75.20
2019-02-26T21:28:23.318Z,75.20
2019-02-26T21:30:53.904Z,75.20
2019-02-26T21:33:24.247Z,75.20
2019-02-26T21:35:54.939Z,75.50
2019-02-26T21:38:25.327Z,75.90
2019-02-26T21:40:55.682Z,76.00
2019-02-26T21:43:26.040Z,76.30
2019-02-26T21:45:57.446Z,76.30
2019-02-26T21:48:27.803Z,76.40
2019-02-26T21:50:58.147Z,76.60
2019-02-26T21:53:28.501Z,76.50
2019-02-26T21:55:58.846Z,76.20
2019-02-26T21:58:29.210Z,76.20
2019-02-26T22:00:59.605Z,76.30
2019-02-26T22:03:29.984Z,76.30
2019-02-26T22:06:05.245Z,76.90
2019-02-26T22:08:32.432Z,77.00
2019-02-26T22:11:02.788Z,77.20
2019-02-26T22:13:33.114Z,77.10
2019-02-26T22:16:03.659Z,77.40
2019-02-26T22:18:34.379Z,77.50
2019-02-26T22:21:04.716Z,77.70
2019-02-26T22:23:35.056Z,77.70
2019-02-26T22:26:05.463Z,78.40
2019-02-26T22:28:35.819Z,77.90
2019-02-26T22:31:06.157Z,77.70
2019-02-26T22:33:36.508Z,77.80
2019-02-26T22:36:06.841Z,77.70
2019-02-26T22:38:37.186Z,78.00
2019-02-26T22:41:07.530Z,78.40
2019-02-26T22:43:37.875Z,78.40
2019-02-26T22:46:08.212Z,78.80
2019-02-26T22:48:38.563Z,78.90
2019-02-26T22:51:09.871Z,79.10
2019-02-26T22:53:40.217Z,79.00
2019-02-26T22:56:10.577Z,79.00
2019-02-26T22:58:40.925Z,79.10
2019-02-26T23:01:17.895Z,79.00
2019-02-26T23:03:49.861Z,78.80
2019-02-26T23:06:20.269Z,78.90
2019-02-26T23:08:50.687Z,79.20
2019-02-26T23:11:21.669Z,78.90
2019-02-26T23:13:54.211Z,78.80
2019-02-26T23:16:25.333Z,78.80
2019-02-26T23:18:55.820Z,78.70
2019-02-26T23:21:26.157Z,78.60
2019-02-26T23:23:57.027Z,78.80
2019-02-26T23:26:27.571Z,78.80
2019-02-26T23:28:59.237Z,78.70
2019-02-26T23:31:32.748Z,78.90
2019-02-26T23:34:02.323Z,79.20
2019-02-26T23:36:32.666Z,79.10
2019-02-26T23:39:04.537Z,79.20
2019-02-26T23:41:36.871Z,79.90
2019-02-26T23:44:07.198Z,79.60
2019-02-26T23:46:38.066Z,79.60
2019-02-26T23:49:08.467Z,79.80
2019-02-26T23:51:38.804Z,80.10
2019-02-26T23:54:09.145Z,79.90
2019-02-26T23:56:39.485Z,80.00
2019-02-26T23:59:10.787Z,80.20
